Time;durP1;ratioP1;P1;durP2;ratioP2;P2;SDS_P1;SDS_P2;PMS_P1;PMS_P2;Temp;Humidity;BMP_temperature;BMP_pressure;BME280_temperature;BME280_humidity;BME280_pressure;Samples;Min_cycle;Max_cycle;Signal;HPM_P1;HPM_P2
2023/09/14 00:01:46;;;;;;;;;;;;;;;23.20;60.68;96002.50;10512966;28;1977;-63
2023/09/14 00:06:47;;;;;;;;;;;;;;;23.19;60.76;96003.56;10512526;28;1865;-63
2023/09/14 00:11:48;;;;;;;;;;;;;;;23.17;60.68;96006.50;10532199;28;1893;-63
2023/09/14 00:16:48;;;;;;;;;;;;;;;23.18;60.61;96005.44;10518173;28;3063;-63
2023/09/14 00:21:51;;;;;;;;;;;;;;;23.17;60.26;96005.72;10518098;28;1942;-63
2023/09/14 00:26:51;;;;;;;;;;;;;;;23.17;61.17;96005.72;10529093;28;2082;-63
2023/09/14 00:31:51;;;;;;;;;;;;;;;23.17;60.92;96005.72;10534268;28;1991;-63
2023/09/14 00:36:51;;;;;;;;;;;;;;;23.17;61.14;96003.84;10518840;28;1892;-63
2023/09/14 00:41:52;;;;;;;;;;;;;;;23.20;61.43;96007.81;10511746;28;4606;-63
2023/09/14 00:46:52;;;;;;;;;;;;;;;23.21;60.92;96007.50;10511215;28;2214;-63
2023/09/14 00:51:52;;;;;;;;;;;;;;;23.21;61.15;95996.13;10527338;28;2011;-63
2023/09/14 00:56:52;;;;;;;;;;;;;;;23.21;60.35;96001.41;10482997;28;2256;-63
2023/09/14 01:01:53;;;;;;;;;;;;;;;23.21;60.81;95991.63;10536223;28;2987;-63
2023/09/14 01:06:53;;;;;;;;;;;;;;;23.21;60.29;95983.72;10541974;28;2082;-63
2023/09/14 01:11:54;;;;;;;;;;;;;;;23.23;60.47;95986.06;10504188;28;2026;-64
2023/09/14 01:17:07;;;;;;;;;;;;;;;23.20;60.55;95982.16;10538302;27;1967;-63
2023/09/14 01:22:26;;;;;;;;;;;;;;;23.21;60.45;95990.84;10504571;28;1973;-63
2023/09/14 01:27:26;;;;;;;;;;;;;;;23.22;60.56;95990.59;10518543;28;2054;-63
2023/09/14 01:32:26;;;;;;;;;;;;;;;23.19;60.04;95996.44;10518745;28;2128;-63
2023/09/14 01:37:27;;;;;;;;;;;;;;;23.20;59.76;95994.56;10517373;28;1967;-63
2023/09/14 01:42:27;;;;;;;;;;;;;;;23.19;59.60;96000.91;10534162;28;4768;-63
2023/09/14 01:47:27;;;;;;;;;;;;;;;23.17;60.03;95989.84;10538374;27;2877;-63
2023/09/14 01:52:27;;;;;;;;;;;;;;;23.17;59.76;95995.91;10516303;28;1948;-63
2023/09/14 01:57:28;;;;;;;;;;;;;;;23.19;60.00;95987.69;10490856;28;1940;-63
2023/09/14 02:02:28;;;;;;;;;;;;;;;23.19;60.22;95979.75;10516104;28;2120;-63
2023/09/14 02:07:29;;;;;;;;;;;;;;;23.20;59.75;95982.16;10532996;28;2079;-63
2023/09/14 02:12:29;;;;;;;;;;;;;;;23.20;60.19;95992.72;10514383;28;2129;-63
2023/09/14 02:17:30;;;;;;;;;;;;;;;23.21;60.37;95998.78;10500748;28;2186;-64
2023/09/14 02:22:31;;;;;;;;;;;;;;;23.20;59.78;96005.94;10502392;28;2035;-64
2023/09/14 02:27:31;;;;;;;;;;;;;;;23.20;60.37;96000.66;10517905;28;1956;-63
2023/09/14 02:32:31;;;;;;;;;;;;;;;23.21;60.20;96001.41;10515363;28;2502;-64
2023/09/14 02:37:32;;;;;;;;;;;;;;;23.21;59.89;96015.44;10515005;28;1982;-64
2023/09/14 02:42:36;;;;;;;;;;;;;;;23.23;59.77;96020.44;10520129;28;4950;-64
2023/09/14 02:47:36;;;;;;;;;;;;;;;23.20;60.08;96021.03;10529665;28;2049;-63
2023/09/14 02:52:37;;;;;;;;;;;;;;;23.21;59.92;96019.94;10501983;28;2110;-63
2023/09/14 02:57:37;;;;;;;;;;;;;;;23.20;59.44;96026.31;10514517;28;2060;-63
2023/09/14 03:02:40;;;;;;;;;;;;;;;23.21;59.80;96019.94;10520561;28;2258;-63
2023/09/14 03:07:40;;;;;;;;;;;;;;;23.21;59.49;96017.28;10516433;28;1985;-63
2023/09/14 03:12:40;;;;;;;;;;;;;;;23.21;59.84;96012.00;10515969;28;2027;-64
2023/09/14 03:17:40;;;;;;;;;;;;;;;23.21;59.97;96022.56;10500602;28;2054;-63
2023/09/14 03:22:41;;;;;;;;;;;;;;;23.22;59.54;96026.81;10514394;28;2029;-62
2023/09/14 03:27:41;;;;;;;;;;;;;;;23.21;59.38;96019.94;10518501;28;2083;-64
2023/09/14 03:32:41;;;;;;;;;;;;;;;23.20;59.44;96031.59;10480417;28;2416;-63
2023/09/14 03:37:41;;;;;;;;;;;;;;;23.19;59.49;96030.00;10528054;27;2000;-63
2023/09/14 03:42:42;;;;;;;;;;;;;;;23.21;59.42;96022.56;10500025;28;4625;-63
2023/09/14 03:47:42;;;;;;;;;;;;;;;23.19;59.20;96022.06;10513861;28;1996;-63
2023/09/14 03:52:42;;;;;;;;;;;;;;;23.21;59.18;96027.88;10487424;28;2239;-64
2023/09/14 03:57:47;;;;;;;;;;;;;;;23.20;59.83;96032.41;10499831;28;1984;-63
2023/09/14 04:02:47;;;;;;;;;;;;;;;23.22;59.50;96032.09;10494049;28;1954;-64
2023/09/14 04:07:48;;;;;;;;;;;;;;;23.23;59.76;96037.09;10516415;28;1995;-64
2023/09/14 04:12:48;;;;;;;;;;;;;;;23.25;59.50;96044.75;10496440;28;1951;-63
2023/09/14 04:17:49;;;;;;;;;;;;;;;23.24;59.63;96053.75;10491785;28;2652;-63
2023/09/14 04:22:50;;;;;;;;;;;;;;;23.24;59.60;96041.34;10513878;28;1985;-64
2023/09/14 04:27:50;;;;;;;;;;;;;;;23.25;59.65;96047.38;10508932;28;2018;-63
2023/09/14 04:32:50;;;;;;;;;;;;;;;23.25;59.75;96052.69;10517217;28;2000;-63
2023/09/14 04:37:51;;;;;;;;;;;;;;;23.25;59.72;96063.25;10526383;28;1983;-63
2023/09/14 04:42:51;;;;;;;;;;;;;;;23.24;59.88;96064.34;10505735;28;4617;-64
2023/09/14 04:47:51;;;;;;;;;;;;;;;23.25;59.57;96066.69;10522186;28;1952;-64
2023/09/14 04:52:51;;;;;;;;;;;;;;;23.25;59.66;96068.56;10523693;28;1974;-63
2023/09/14 04:57:52;;;;;;;;;;;;;;;23.24;59.58;96061.69;10498110;28;2004;-64
2023/09/14 05:02:53;;;;;;;;;;;;;;;23.23;59.17;96070.69;10532466;28;2575;-64
2023/09/14 05:07:53;;;;;;;;;;;;;;;23.20;58.80;96060.69;10526582;28;2000;-64
2023/09/14 05:12:53;;;;;;;;;;;;;;;23.19;59.07;96065.19;10515525;28;2011;-64
2023/09/14 05:17:54;;;;;;;;;;;;;;;23.16;58.75;96060.44;10517710;28;2254;-64
2023/09/14 05:22:54;;;;;;;;;;;;;;;23.09;57.84;96067.16;10523060;28;1951;-64
2023/09/14 05:27:55;;;;;;;;;;;;;;;23.04;57.13;96069.88;10539549;28;1995;-64
2023/09/14 05:32:56;;;;;;;;;;;;;;;23.01;58.01;96081.00;10515619;28;1966;-64
2023/09/14 05:37:56;;;;;;;;;;;;;;;23.05;58.71;96082.81;10519547;28;1971;-64
2023/09/14 05:42:56;;;;;;;;;;;;;;;23.05;57.88;96082.81;10535929;28;4652;-64
2023/09/14 05:47:57;;;;;;;;;;;;;;;23.05;58.35;96090.72;10534899;28;2002;-64
2023/09/14 05:52:57;;;;;;;;;;;;;;;23.08;58.31;96099.97;10516870;28;1990;-64
2023/09/14 05:57:57;;;;;;;;;;;;;;;23.05;57.51;96100.50;10494499;28;2020;-64
2023/09/14 06:02:58;;;;;;;;;;;;;;;23.03;57.30;96107.94;10514971;28;2667;-64
2023/09/14 06:07:58;;;;;;;;;;;;;;;23.00;57.40;96109.28;10531410;27;1953;-64
2023/09/14 06:12:59;;;;;;;;;;;;;;;23.01;57.59;96112.72;10523783;28;2017;-63
2023/09/14 06:17:59;;;;;;;;;;;;;;;23.04;57.69;96120.09;10522865;28;1955;-64
2023/09/14 06:22:59;;;;;;;;;;;;;;;23.00;57.16;96116.44;10534936;27;2006;-63
2023/09/14 06:27:59;;;;;;;;;;;;;;;23.01;57.06;96118.00;10518624;28;1917;-62
2023/09/14 06:33:00;;;;;;;;;;;;;;;23.05;57.65;96126.97;10519887;28;1938;-62
2023/09/14 06:38:01;;;;;;;;;;;;;;;23.09;57.54;96114.75;10522168;28;1992;-62
2023/09/14 06:43:01;;;;;;;;;;;;;;;23.07;57.42;96124.81;10519906;28;4633;-62
2023/09/14 06:48:01;;;;;;;;;;;;;;;23.02;56.73;96128.28;10516771;28;2765;-63
2023/09/14 06:53:02;;;;;;;;;;;;;;;23.02;56.98;96128.28;10483087;28;2020;-63
2023/09/14 06:58:02;;;;;;;;;;;;;;;23.00;57.00;96130.44;10513855;28;2005;-62
2023/09/14 07:03:02;;;;;;;;;;;;;;;23.05;57.39;96132.25;10510292;28;2110;-62
2023/09/14 07:08:03;;;;;;;;;;;;;;;23.07;57.68;96138.03;10504979;28;1979;-63
2023/09/14 07:13:03;;;;;;;;;;;;;;;23.11;58.22;96131.91;10528442;28;1959;-62
2023/09/14 07:18:03;;;;;;;;;;;;;;;23.15;57.62;96134.78;10512286;28;1940;-62
2023/09/14 07:23:04;;;;;;;;;;;;;;;23.17;58.02;96143.22;10516000;28;2036;-63
2023/09/14 07:28:04;;;;;;;;;;;;;;;23.16;57.58;96149.59;10524893;28;1923;-62
2023/09/14 07:33:05;;;;;;;;;;;;;;;23.18;58.04;96145.59;10495183;28;2610;-64
2023/09/14 07:38:07;;;;;;;;;;;;;;;23.19;57.55;96144.53;10498731;28;1968;-65
2023/09/14 07:43:07;;;;;;;;;;;;;;;23.18;57.40;96150.09;10497688;28;4812;-63
2023/09/14 07:48:08;;;;;;;;;;;;;;;23.20;57.62;96153.25;10507944;28;1964;-62
2023/09/14 07:53:08;;;;;;;;;;;;;;;23.21;57.24;96157.47;10512860;28;1995;-61
2023/09/14 07:58:08;;;;;;;;;;;;;;;23.21;57.81;96152.19;10514816;28;2012;-61
2023/09/14 08:03:09;;;;;;;;;;;;;;;23.19;57.23;96160.41;10527865;28;1963;-61
2023/09/14 08:08:09;;;;;;;;;;;;;;;23.18;57.25;96161.47;10496720;28;1980;-61
2023/09/14 08:13:10;;;;;;;;;;;;;;;23.17;57.10;96169.66;10492033;28;1896;-61
2023/09/14 08:18:10;;;;;;;;;;;;;;;23.17;57.13;96167.03;10513800;28;2623;-61
2023/09/14 08:23:12;;;;;;;;;;;;;;;23.18;57.54;96166.78;10514454;28;1981;-61
2023/09/14 08:28:12;;;;;;;;;;;;;;;23.19;57.44;96170.97;10497667;28;1989;-61
2023/09/14 08:33:13;;;;;;;;;;;;;;;23.22;57.04;96167.00;10515118;28;2015;-61
2023/09/14 08:38:13;;;;;;;;;;;;;;;23.23;57.48;96173.84;10529793;28;2015;-61
2023/09/14 08:43:13;;;;;;;;;;;;;;;23.24;57.81;96170.94;10513929;28;4711;-61
2023/09/14 08:48:14;;;;;;;;;;;;;;;23.25;57.32;96171.69;10512216;28;1955;-61
2023/09/14 08:53:16;;;;;;;;;;;;;;;23.23;57.26;96171.19;10496728;28;1892;-61
2023/09/14 08:58:16;;;;;;;;;;;;;;;23.23;57.02;96165.91;10516378;28;1974;-61
2023/09/14 09:03:16;;;;;;;;;;;;;;;23.22;57.06;96159.06;10510132;28;2550;-61
2023/09/14 09:08:17;;;;;;;;;;;;;;;23.21;56.82;96155.63;10517806;28;1956;-60
2023/09/14 09:13:17;;;;;;;;;;;;;;;23.23;57.01;96166.69;10497365;28;2260;-60
2023/09/14 09:18:17;;;;;;;;;;;;;;;23.24;56.92;96167.50;10517228;28;1976;-60
2023/09/14 09:23:21;;;;;;;;;;;;;;;23.22;56.85;96161.69;10522138;28;1994;-60
2023/09/14 09:28:27;;;;;;;;;;;;;;;23.24;56.66;96175.44;10520945;28;2264;-59
2023/09/14 09:33:45;;;;;;;;;;;;;;;23.24;56.61;96173.59;10519667;28;1994;-60
2023/09/14 09:38:47;;;;;;;;;;;;;;;23.27;56.98;96170.34;10507303;28;1980;-60
2023/09/14 09:43:49;;;;;;;;;;;;;;;23.28;56.72;96165.88;10518819;28;4622;-59
2023/09/14 09:48:50;;;;;;;;;;;;;;;23.27;56.54;96173.00;10523556;28;2515;-60
2023/09/14 09:54:02;;;;;;;;;;;;;;;23.27;56.67;96174.84;10525381;28;1917;-60
2023/09/14 09:59:04;;;;;;;;;;;;;;;23.27;56.40;96172.22;10522088;28;1939;-60
2023/09/14 10:04:10;;;;;;;;;;;;;;;23.25;56.08;96167.22;10521603;28;1959;-60
2023/09/14 10:09:11;;;;;;;;;;;;;;;23.24;55.87;96167.50;10530650;28;1821;-60
2023/09/14 10:14:13;;;;;;;;;;;;;;;23.22;55.56;96174.91;10520837;28;2011;-60
2023/09/14 10:19:13;;;;;;;;;;;;;;;23.20;55.85;96172.56;10504478;28;1987;-61
2023/09/14 10:24:13;;;;;;;;;;;;;;;23.21;55.47;96170.69;10521509;28;1911;-61
2023/09/14 10:29:14;;;;;;;;;;;;;;;23.20;55.58;96171.78;10539030;28;1925;-60
2023/09/14 10:34:14;;;;;;;;;;;;;;;23.22;55.84;96167.00;10471527;28;2519;-61
2023/09/14 10:39:17;;;;;;;;;;;;;;;23.23;55.79;96165.91;10506308;28;1996;-61
2023/09/14 10:44:17;;;;;;;;;;;;;;;23.21;55.25;96160.09;10520659;28;4566;-61
2023/09/14 10:49:22;;;;;;;;;;;;;;;23.18;54.96;96161.47;10538496;28;2273;-61
2023/09/14 10:54:25;;;;;;;;;;;;;;;23.16;55.07;96153.00;10505341;28;1964;-61
2023/09/14 10:59:49;;;;;;;;;;;;;;;23.18;54.92;96155.41;10516564;28;1928;-62
2023/09/14 11:05:07;;;;;;;;;;;;;;;23.19;54.92;96149.03;10511423;28;2505;-61
2023/09/14 11:10:09;;;;;;;;;;;;;;;23.21;54.91;96146.88;10518096;28;1885;-61
2023/09/14 11:15:15;;;;;;;;;;;;;;;23.21;54.88;96137.09;10495729;28;1990;-61
2023/09/14 11:20:24;;;;;;;;;;;;;;;23.23;54.59;96129.66;10522158;28;2633;-61
2023/09/14 11:25:32;;;;;;;;;;;;;;;23.25;54.63;96132.03;10519817;28;2061;-61
2023/09/14 11:30:33;;;;;;;;;;;;;;;23.24;54.16;96130.47;10520546;28;1930;-60
2023/09/14 11:35:33;;;;;;;;;;;;;;;23.24;54.37;96119.88;10517953;28;1984;-61
2023/09/14 11:40:34;;;;;;;;;;;;;;;23.27;54.34;96124.59;10516069;28;2003;-60
2023/09/14 11:45:38;;;;;;;;;;;;;;;23.30;54.45;96116.13;10522965;28;1934;-60
2023/09/14 11:50:42;;;;;;;;;;;;;;;23.29;54.42;96115.31;10501571;28;1928;-61
2023/09/14 11:55:47;;;;;;;;;;;;;;;23.34;54.45;96114.50;10541056;28;1975;-61
2023/09/14 12:00:48;;;;;;;;;;;;;;;23.34;54.13;96114.50;10535946;28;1898;-62
2023/09/14 12:05:48;;;;;;;;;;;;;;;23.35;54.16;96101.00;10536611;27;2572;-61
2023/09/14 12:10:52;;;;;;;;;;;;;;;23.37;53.98;96098.84;10507754;28;1974;-61
2023/09/14 12:15:59;;;;;;;;;;;;;;;23.37;53.93;96093.56;10537837;28;1912;-62
2023/09/14 12:21:00;;;;;;;;;;;;;;;23.38;53.86;96095.16;10514923;28;1981;-61
2023/09/14 12:26:00;;;;;;;;;;;;;;;23.37;53.66;96087.47;10501998;28;1794;-59
2023/09/14 12:31:00;;;;;;;;;;;;;;;23.35;53.35;96086.97;10530626;28;2059;-59
2023/09/14 12:36:01;;;;;;;;;;;;;;;23.35;53.67;96089.63;10517108;28;1885;-59
2023/09/14 12:41:01;;;;;;;;;;;;;;;23.35;53.70;96079.84;10538408;28;4601;-59
2023/09/14 12:46:01;;;;;;;;;;;;;;;23.39;53.95;96080.03;10517258;28;1916;-59
2023/09/14 12:51:05;;;;;;;;;;;;;;;23.39;53.86;96074.75;10518913;28;2923;-58
2023/09/14 12:56:05;;;;;;;;;;;;;;;23.40;53.92;96071.06;10507851;28;1938;-58
2023/09/14 13:01:06;;;;;;;;;;;;;;;23.43;54.05;96065.22;10539753;28;1975;-60
2023/09/14 13:06:06;;;;;;;;;;;;;;;23.42;53.73;96063.63;10518066;28;1904;-59
2023/09/14 13:11:07;;;;;;;;;;;;;;;23.42;53.37;96056.47;10521919;28;1970;-61
2023/09/14 13:16:07;;;;;;;;;;;;;;;23.41;53.54;96051.47;10528282;28;1893;-60
2023/09/14 13:21:08;;;;;;;;;;;;;;;23.39;53.40;96048.28;10519995;28;2123;-59
2023/09/14 13:26:08;;;;;;;;;;;;;;;23.40;53.41;96039.31;10526552;28;1951;-58
2023/09/14 13:31:11;;;;;;;;;;;;;;;23.38;53.33;96036.16;10522222;28;1936;-66
2023/09/14 13:36:11;;;;;;;;;;;;;;;23.39;53.33;96037.72;10501386;28;2482;-61
2023/09/14 13:41:13;;;;;;;;;;;;;;;23.39;53.20;96032.44;10520652;28;4700;-59
2023/09/14 13:46:13;;;;;;;;;;;;;;;23.38;53.12;96030.88;10524994;28;1956;-60
2023/09/14 13:51:13;;;;;;;;;;;;;;;23.38;53.40;96023.72;10504496;28;2094;-61
2023/09/14 13:56:14;;;;;;;;;;;;;;;23.42;53.45;96018.66;10491869;28;1948;-62
2023/09/14 14:01:14;;;;;;;;;;;;;;;23.43;53.17;96030.81;10506142;28;1914;-62
2023/09/14 14:06:14;;;;;;;;;;;;;;;23.43;53.12;96028.16;10506449;28;1950;-62
2023/09/14 14:11:16;;;;;;;;;;;;;;;23.43;53.05;96017.59;10506578;28;1941;-59
2023/09/14 14:16:16;;;;;;;;;;;;;;;23.44;52.60;96013.84;10527300;28;1896;-65
2023/09/14 14:26:33;;;;;;;;;;;;;;;23.43;52.47;96017.59;10268603;22;2269;-76
2023/09/14 14:31:33;;;;;;;;;;;;;;;23.42;52.10;96008.06;10317362;28;1882;-74
2023/09/14 14:36:34;;;;;;;;;;;;;;;23.41;52.17;96014.44;10308075;28;1969;-71
2023/09/14 14:41:34;;;;;;;;;;;;;;;23.37;52.34;96014.19;10282953;28;4644;-75
2023/09/14 14:46:34;;;;;;;;;;;;;;;23.39;52.41;96013.91;10290762;28;2066;-76
2023/09/14 14:51:35;;;;;;;;;;;;;;;23.37;52.39;96016.06;10293689;28;2067;-76
2023/09/14 14:56:35;;;;;;;;;;;;;;;23.38;52.31;96015.00;10298312;28;1908;-76
2023/09/14 15:01:35;;;;;;;;;;;;;;;23.39;52.55;96011.25;10289402;28;1930;-75
2023/09/14 15:06:36;;;;;;;;;;;;;;;23.39;52.41;96011.25;10286649;28;2446;-76
2023/09/14 15:11:36;;;;;;;;;;;;;;;23.38;52.40;96020.28;10280149;28;2151;-79
2023/09/14 15:16:37;;;;;;;;;;;;;;;23.41;52.44;96017.84;10280427;28;1995;-80
2023/09/14 15:21:37;;;;;;;;;;;;;;;23.44;52.43;96013.84;10294088;28;2055;-79
2023/09/14 15:26:37;;;;;;;;;;;;;;;23.42;52.60;96010.72;10279834;28;1936;-82
2023/09/14 15:31:37;;;;;;;;;;;;;;;23.39;52.26;96003.31;10280143;28;1933;-78
2023/09/14 15:36:38;;;;;;;;;;;;;;;23.42;52.33;96010.72;10279591;28;1950;-82
2023/09/14 15:41:40;;;;;;;;;;;;;;;23.44;52.19;96019.16;10288404;28;4699;-76
2023/09/14 15:46:40;;;;;;;;;;;;;;;23.42;52.05;96010.72;10296680;28;2129;-80
2023/09/14 15:51:40;;;;;;;;;;;;;;;23.40;52.22;96020.78;10299414;28;2687;-77
2023/09/14 15:56:41;;;;;;;;;;;;;;;23.39;52.12;96011.25;10314004;28;1827;-78
2023/09/14 16:01:41;;;;;;;;;;;;;;;23.40;52.38;96015.50;10278091;28;1950;-74
2023/09/14 16:06:44;;;;;;;;;;;;;;;23.39;52.35;96013.91;10312122;28;1970;-75
2023/09/14 16:11:44;;;;;;;;;;;;;;;23.37;52.21;96019.50;10310035;28;1811;-73
2023/09/14 16:16:44;;;;;;;;;;;;;;;23.37;52.12;96016.84;10307522;28;1867;-74
2023/09/14 16:21:45;;;;;;;;;;;;;;;;;;10288645;28;2172;-74
2023/09/14 16:26:46;;;;;;;;;;;;;;;23.36;52.21;96012.63;10300025;28;1888;-74
2023/09/14 16:31:47;;;;;;;;;;;;;;;23.35;52.04;96012.91;10305114;28;1970;-72
2023/09/14 16:36:47;;;;;;;;;;;;;;;;;;10313910;28;2952;-70
2023/09/14 16:41:48;;;;;;;;;;;;;;;23.35;51.95;96015.53;10314998;28;4646;-71
2023/09/14 16:46:48;;;;;;;;;;;;;;;23.35;52.02;96012.91;10309085;28;2514;-70
2023/09/14 16:51:51;;;;;;;;;;;;;;;23.36;52.15;96022.44;10301501;28;1943;-70
2023/09/14 16:56:56;;;;;;;;;;;;;;;23.37;52.34;96021.34;10296210;28;2012;-70
2023/09/14 17:01:57;;;;;;;;;;;;;;;23.37;52.48;96018.69;10313884;28;1969;-69
2023/09/14 17:06:57;;;;;;;;;;;;;;;23.39;52.58;96029.78;10314667;28;1969;-71
2023/09/14 17:11:58;;;;;;;;;;;;;;;23.38;52.28;96025.56;10290919;28;1872;-69
2023/09/14 17:16:59;;;;;;;;;;;;;;;23.53;52.30;96022.75;10312648;28;1965;-72
2023/09/14 17:21:59;;;;;;;;;;;;;;;23.65;51.89;96023.09;10292636;28;2935;-69
2023/09/14 17:27:00;;;;;;;;;;;;;;;23.78;51.56;96025.00;10313493;28;1910;-68
2023/09/14 17:32:06;;;;;;;;;;;;;;;23.91;51.61;96024.28;10293591;28;1931;-69
2023/09/14 17:37:07;;;;;;;;;;;;;;;24.02;51.18;96031.00;10297826;28;2016;-70
2023/09/14 17:42:07;;;;;;;;;;;;;;;24.11;50.80;96031.94;10314443;28;4715;-70
2023/09/14 17:47:08;;;;;;;;;;;;;;;24.17;50.31;96028.13;10313980;28;2162;-69
2023/09/14 17:52:08;;;;;;;;;;;;;;;24.22;50.37;96030.72;10300433;28;1975;-68
2023/09/14 17:57:09;;;;;;;;;;;;;;;24.29;49.94;96035.66;10296657;28;1974;-68
2023/09/14 18:02:09;;;;;;;;;;;;;;;24.29;50.20;96034.84;10296415;28;1918;-67
2023/09/14 18:07:11;;;;;;;;;;;;;;;24.34;50.08;96032.91;10278795;28;2854;-66
2023/09/14 18:12:12;;;;;;;;;;;;;;;24.41;50.24;96043.13;10307562;28;1957;-67
2023/09/14 18:17:12;;;;;;;;;;;;;;;24.48;50.01;96043.53;10291764;28;1915;-70
2023/09/14 18:22:13;;;;;;;;;;;;;;;24.43;49.86;96052.38;10307048;28;2001;-69
2023/09/14 18:27:14;;;;;;;;;;;;;;;24.44;49.76;96058.47;10293520;28;1999;-71
2023/09/14 18:32:14;;;;;;;;;;;;;;;24.43;49.90;96060.31;10306497;28;1917;-70
2023/09/14 18:37:15;;;;;;;;;;;;;;;24.49;49.83;96058.34;10310772;28;2028;-71
2023/09/14 18:42:16;;;;;;;;;;;;;;;24.56;49.65;96069.38;10294622;28;2297;-70
2023/09/14 18:47:18;;;;;;;;;;;;;;;24.48;49.84;96068.19;10306338;28;1939;-68
2023/09/14 18:52:18;;;;;;;;;;;;;;;24.51;49.77;96074.75;10296987;28;1867;-67
2023/09/14 18:57:19;;;;;;;;;;;;;;;24.48;49.83;96078.00;10276818;28;2761;-69
2023/09/14 19:02:19;;;;;;;;;;;;;;;24.40;49.83;96073.38;10302622;28;1974;-67
2023/09/14 19:07:20;;;;;;;;;;;;;;;24.37;49.99;96076.59;10295133;28;1858;-67
2023/09/14 19:12:21;;;;;;;;;;;;;;;24.31;50.57;96077.75;10291580;28;1939;-67
2023/09/14 19:17:21;;;;;;;;;;;;;;;24.28;50.41;96078.34;10308485;28;1922;-67
2023/09/14 19:22:22;;;;;;;;;;;;;;;24.23;50.29;96072.00;10259689;28;1982;-67
2023/09/14 19:27:22;;;;;;;;;;;;;;;24.22;50.49;96075.75;10309570;28;1874;-67
2023/09/14 19:32:23;;;;;;;;;;;;;;;24.22;50.64;96072.31;10272988;28;1971;-67
2023/09/14 19:37:25;;;;;;;;;;;;;;;24.10;50.73;96070.13;10304622;28;1905;-68
2023/09/14 19:42:25;;;;;;;;;;;;;;;24.07;51.07;96078.63;10276842;28;4628;-67
2023/09/14 19:47:25;;;;;;;;;;;;;;;24.06;51.03;96073.63;10290990;28;2006;-66
2023/09/14 19:52:28;;;;;;;;;;;;;;;24.02;50.93;96076.03;10287763;28;2135;-68
2023/09/14 19:57:28;;;;;;;;;;;;;;;23.99;51.17;96065.22;10300736;28;1928;-68
2023/09/14 20:02:28;;;;;;;;;;;;;;;23.97;51.19;96060.22;10276387;28;1968;-68
2023/09/14 20:07:29;;;;;;;;;;;;;;;23.94;50.91;96060.78;10280728;28;1995;-68
2023/09/14 20:12:29;;;;;;;;;;;;;;;23.92;51.15;96057.66;10285321;28;1923;-68
2023/09/14 20:17:29;;;;;;;;;;;;;;;23.97;51.29;96062.84;10281700;28;1916;-69
2023/09/14 20:22:30;;;;;;;;;;;;;;;24.00;51.27;96058.84;10285309;28;1979;-69
2023/09/14 20:27:30;;;;;;;;;;;;;;;24.02;51.14;96070.75;10288772;28;2821;-69
2023/09/14 20:32:31;;;;;;;;;;;;;;;24.02;50.87;96065.44;10283057;28;2023;-70
2023/09/14 20:37:35;;;;;;;;;;;;;;;24.04;50.77;96068.63;10269836;28;1950;-70
2023/09/14 20:42:35;;;;;;;;;;;;;;;24.04;50.91;96065.19;10270829;28;4655;-69
2023/09/14 20:47:36;;;;;;;;;;;;;;;24.02;50.78;96072.59;10286326;28;1947;-70
2023/09/14 20:52:37;;;;;;;;;;;;;;;24.03;50.81;96064.38;10300014;28;2015;-69
2023/09/14 20:57:37;;;;;;;;;;;;;;;24.02;50.78;96065.44;10287305;28;1910;-67
2023/09/14 21:02:37;;;;;;;;;;;;;;;24.02;50.72;96056.69;10282136;28;1951;-69
2023/09/14 21:07:39;;;;;;;;;;;;;;;24.00;50.86;96054.34;10280942;28;1982;-68
2023/09/14 21:12:39;;;;;;;;;;;;;;;23.94;50.98;96050.22;10303621;28;2550;-68
2023/09/14 21:17:40;;;;;;;;;;;;;;;23.92;51.07;96049.72;10295714;28;1984;-68
2023/09/14 21:22:41;;;;;;;;;;;;;;;23.89;51.20;96049.47;10286250;28;1956;-68
2023/09/14 21:27:47;;;;;;;;;;;;;;;23.88;51.46;96042.63;10285848;28;2008;-70
2023/09/14 21:32:48;;;;;;;;;;;;;;;23.83;51.49;96043.47;10279743;28;1990;-68
2023/09/14 21:37:49;;;;;;;;;;;;;;;23.80;51.60;96041.38;10323213;28;1879;-68
2023/09/14 21:42:49;;;;;;;;;;;;;;;23.78;51.78;96046.19;10316542;28;4652;-69
2023/09/14 21:47:50;;;;;;;;;;;;;;;23.75;51.69;96041.47;10300928;28;1834;-69
2023/09/14 21:52:50;;;;;;;;;;;;;;;23.76;51.48;96031.69;10298180;28;1948;-68
2023/09/14 21:57:51;;;;;;;;;;;;;;;23.73;51.65;96035.69;10317864;28;1857;-67
2023/09/14 22:02:51;;;;;;;;;;;;;;;23.72;51.67;96026.16;10310235;28;1910;-66
2023/09/14 22:07:52;;;;;;;;;;;;;;;23.70;51.67;96022.25;10316820;28;1887;-66
2023/09/14 22:12:52;;;;;;;;;;;;;;;23.69;51.54;96016.16;10302131;28;2691;-66
2023/09/14 22:17:52;;;;;;;;;;;;;;;23.66;51.59;96014.06;10295375;28;1916;-66
2023/09/14 22:22:53;;;;;;;;;;;;;;;23.65;51.57;96017.00;10299276;28;1953;-68
2023/09/14 22:27:53;;;;;;;;;;;;;;;23.64;51.59;96013.56;10312866;28;1898;-68
2023/09/14 22:32:53;;;;;;;;;;;;;;;23.65;51.68;96014.38;10295550;28;1926;-68
2023/09/14 22:37:54;;;;;;;;;;;;;;;23.62;51.64;96015.72;10298083;28;1856;-68
2023/09/14 22:42:54;;;;;;;;;;;;;;;23.62;51.68;96005.13;10312964;28;4659;-69
2023/09/14 22:47:55;;;;;;;;;;;;;;;23.61;51.71;96002.78;10294628;28;1939;-67
2023/09/14 22:52:56;;;;;;;;;;;;;;;23.59;51.79;96004.91;10298190;28;1870;-68
2023/09/14 22:57:57;;;;;;;;;;;;;;;23.59;51.73;96008.38;10298113;28;2751;-67
2023/09/14 23:02:57;;;;;;;;;;;;;;;23.58;51.90;96004.13;10290153;28;2010;-68
2023/09/14 23:07:58;;;;;;;;;;;;;;;23.57;51.69;96005.22;10308368;28;2010;-67
2023/09/14 23:12:58;;;;;;;;;;;;;;;23.57;51.67;95999.13;10287140;28;1911;-68
2023/09/14 23:17:59;;;;;;;;;;;;;;;23.57;51.74;96001.78;10312328;28;1886;-67
2023/09/14 23:22:59;;;;;;;;;;;;;;;23.55;51.75;95990.69;10314964;28;2067;-68
2023/09/14 23:28:02;;;;;;;;;;;;;;;23.55;51.74;95988.84;10289959;28;2058;-68
2023/09/14 23:33:03;;;;;;;;;;;;;;;23.54;51.60;95989.09;10288283;28;2025;-67
2023/09/14 23:38:06;;;;;;;;;;;;;;;23.54;51.75;95983.81;10310636;28;1874;-68
2023/09/14 23:43:10;;;;;;;;;;;;;;;23.52;51.82;95978.03;10298576;28;4704;-68
2023/09/14 23:48:12;;;;;;;;;;;;;;;23.51;51.74;95977.25;10310084;28;1988;-68
2023/09/14 23:53:12;;;;;;;;;;;;;;;23.50;51.40;95969.59;10295990;28;2003;-67
2023/09/14 23:58:14;;;;;;;;;;;;;;;23.49;51.57;95966.16;10291233;28;1849;-68
